Ossipee, New Hampshire
Current Conditions -  °F | °C
As of 7:55 AM on Wednesday 22 Oct 2014 (Local Time) from KLCI Reporting Station
Overcast Overcast  
Wind Chill: 41°   Ceiling: 900
Heat Index: 46°   Visibility: 10mi
Dew Point: 43°   Wind: 12mph
Humidity: 87%   Direction: 50°NE
Pressure: 30.11"   Gusts: 18mph
Location:  43.69°N, 71.12°W
Report Text: KLCI 221155Z AUTO 05010G16KT 10SM OVC009 08/06 A3011 RMK AO1 60001 70002 10090 20080 52017
Loading
Personal Weather Stations






























Interactive Weather Map
Tropical Storm Tracking
New forecast layout! Learn more

10-Day Weather Forecast

Advertisements
Track Severe Weather on mobile